createdAt,value
2019-05-11T00:01:35.259Z,97638.28
2019-05-11T00:04:04.809Z,97640.00
2019-05-11T00:06:34.326Z,97638.46
2019-05-11T00:09:06.286Z,97642.89
2019-05-11T00:11:35.824Z,97636.09
2019-05-11T00:14:05.694Z,97635.55
2019-05-11T00:16:35.557Z,97641.56
2019-05-11T00:19:05.096Z,97640.25
2019-05-11T00:21:34.927Z,97647.34
2019-05-11T00:24:04.460Z,97639.10
2019-05-11T00:26:33.978Z,97639.97
2019-05-11T00:29:03.734Z,97642.34
2019-05-11T00:31:33.610Z,97656.15
2019-05-11T00:34:03.326Z,97645.58
2019-05-11T00:36:33.074Z,97648.63
2019-05-11T00:39:02.617Z,97644.02
2019-05-11T00:41:32.188Z,97643.70
2019-05-11T00:44:01.992Z,97648.68
2019-05-11T00:46:31.523Z,97647.21
2019-05-11T00:49:01.037Z,97647.30
2019-05-11T00:51:30.585Z,97647.25
2019-05-11T00:54:00.487Z,97651.09
2019-05-11T00:56:30.236Z,97653.91
2019-05-11T00:58:59.761Z,97654.63
2019-05-11T01:01:29.298Z,97655.77
2019-05-11T01:03:58.804Z,97655.91
2019-05-11T01:06:28.661Z,97658.70
2019-05-11T01:08:58.352Z,97665.89
2019-05-11T01:11:27.873Z,97662.52
2019-05-11T01:13:57.406Z,97666.13
2019-05-11T01:16:26.931Z,97664.84
2019-05-11T01:18:56.594Z,97664.74
2019-05-11T01:21:26.186Z,97669.25
2019-05-11T01:23:55.908Z,97664.17
2019-05-11T01:26:25.681Z,97668.45
2019-05-11T01:28:55.530Z,97668.13
2019-05-11T01:31:25.415Z,97673.50
2019-05-11T01:33:55.357Z,97672.70
2019-05-11T01:36:25.130Z,97675.39
2019-05-11T01:38:55.125Z,97671.06
2019-05-11T01:41:24.887Z,97677.03
2019-05-11T01:43:54.675Z,97674.55
2019-05-11T01:46:24.508Z,97675.59
2019-05-11T01:48:54.332Z,97676.69
2019-05-11T01:51:24.089Z,97678.27
2019-05-11T01:53:53.621Z,97676.20
2019-05-11T01:56:23.459Z,97671.64
2019-05-11T01:58:53.302Z,97677.01
2019-05-11T02:01:22.818Z,97675.28
2019-05-11T02:03:52.467Z,97675.91
2019-05-11T02:06:22.362Z,97672.90
2019-05-11T02:08:52.008Z,97679.44
2019-05-11T02:11:21.782Z,97683.25
2019-05-11T02:13:51.512Z,97687.84
2019-05-11T02:16:21.300Z,97686.11
2019-05-11T02:18:51.109Z,97677.26
2019-05-11T02:21:21.028Z,97681.39
2019-05-11T02:23:50.728Z,97675.50
2019-05-11T02:26:20.687Z,97679.02
2019-05-11T02:28:50.595Z,97680.17
2019-05-11T02:31:20.377Z,97680.56
2019-05-11T02:33:50.109Z,97681.63
2019-05-11T02:36:19.933Z,97686.78
2019-05-11T02:38:49.707Z,97686.22
2019-05-11T02:41:34.816Z,97690.74
2019-05-11T02:43:50.905Z,97698.57
2019-05-11T02:46:20.658Z,97697.46
2019-05-11T02:48:50.627Z,97697.09
2019-05-11T02:51:20.540Z,97700.34
2019-05-11T02:53:52.028Z,97703.06
2019-05-11T02:56:21.585Z,97696.30
2019-05-11T02:58:51.303Z,97702.27
2019-05-11T03:01:20.840Z,97696.12
2019-05-11T03:03:50.517Z,97697.06
2019-05-11T03:06:20.044Z,97706.91
2019-05-11T03:08:49.905Z,97701.89
2019-05-11T03:11:19.831Z,97709.47
2019-05-11T03:13:49.360Z,97711.80
2019-05-11T03:16:19.257Z,97722.20
2019-05-11T03:18:49.041Z,97718.16
2019-05-11T03:21:18.798Z,97722.05
2019-05-11T03:23:48.352Z,97720.72
2019-05-11T03:26:17.909Z,97723.89
2019-05-11T03:28:47.427Z,97719.73
2019-05-11T03:31:17.095Z,97729.52
2019-05-11T03:33:47.031Z,97732.84
2019-05-11T03:36:16.996Z,97736.31
2019-05-11T03:38:46.754Z,97735.09
2019-05-11T03:41:16.566Z,97744.05
2019-05-11T03:43:46.089Z,97747.39
2019-05-11T03:46:15.619Z,97739.86
2019-05-11T03:48:45.377Z,97739.94
2019-05-11T03:51:16.123Z,97750.41
2019-05-11T03:53:45.886Z,97748.56
2019-05-11T03:56:15.422Z,97755.23
2019-05-11T03:58:44.935Z,97759.48
2019-05-11T04:01:14.709Z,97758.82
2019-05-11T04:03:44.641Z,97762.21
2019-05-11T04:06:14.052Z,97761.76
2019-05-11T04:08:43.470Z,97764.48
2019-05-11T04:11:13.273Z,97771.48
2019-05-11T04:13:42.763Z,97772.10
2019-05-11T04:16:12.514Z,97776.69
2019-05-11T04:18:42.328Z,97777.52
2019-05-11T04:21:12.203Z,97776.81
2019-05-11T04:23:41.707Z,97780.32
2019-05-11T04:26:11.130Z,97783.20
2019-05-11T04:28:40.861Z,97785.22
2019-05-11T04:31:10.516Z,97785.47
2019-05-11T04:33:40.314Z,97788.59
2019-05-11T04:36:10.095Z,97784.75
2019-05-11T04:38:39.704Z,97789.73
2019-05-11T04:41:09.207Z,97792.06
2019-05-11T04:43:38.616Z,97799.64
2019-05-11T04:46:08.262Z,97792.14
2019-05-11T04:48:37.785Z,97794.56
2019-05-11T04:51:07.191Z,97792.69
2019-05-11T04:53:36.909Z,97794.16
2019-05-11T04:56:06.641Z,97799.59
2019-05-11T04:58:36.152Z,97801.69
2019-05-11T05:01:05.955Z,97800.34
2019-05-11T05:03:40.842Z,97806.06
2019-05-11T05:06:21.782Z,97804.59
2019-05-11T05:08:38.678Z,97800.59
2019-05-11T05:11:08.362Z,97807.63
2019-05-11T05:13:37.813Z,97810.22
2019-05-11T05:16:07.420Z,97811.22
2019-05-11T05:18:37.303Z,97818.30
2019-05-11T05:21:06.887Z,97824.59
2019-05-11T05:23:36.671Z,97830.80
2019-05-11T05:26:06.091Z,97826.66
2019-05-11T05:28:35.812Z,97837.52
2019-05-11T05:31:05.598Z,97840.98
2019-05-11T05:33:35.288Z,97842.27
2019-05-11T05:36:05.039Z,97843.09
2019-05-11T05:38:34.754Z,97844.72
2019-05-11T05:41:04.585Z,97853.94
2019-05-11T05:43:34.384Z,97858.91
2019-05-11T05:46:04.190Z,97852.14
2019-05-11T05:48:33.894Z,97857.53
2019-05-11T05:51:03.467Z,97850.77
2019-05-11T05:53:33.227Z,97852.30
2019-05-11T05:56:02.860Z,97857.78
2019-05-11T05:58:32.565Z,97849.84
2019-05-11T06:01:02.082Z,97862.62
2019-05-11T06:03:31.907Z,97860.84
2019-05-11T06:06:01.469Z,97865.73
2019-05-11T06:08:30.856Z,97870.71
2019-05-11T06:11:00.376Z,97873.52
2019-05-11T06:13:44.718Z,97877.02
2019-05-11T06:16:01.414Z,97882.30
2019-05-11T06:18:31.022Z,97881.13
2019-05-11T06:21:00.513Z,97885.22
2019-05-11T06:23:30.304Z,97880.50
2019-05-11T06:25:59.721Z,97892.55
2019-05-11T06:28:29.132Z,97891.45
2019-05-11T06:30:58.866Z,97888.30
2019-05-11T06:33:28.395Z,97890.30
2019-05-11T06:35:57.943Z,97891.92
2019-05-11T06:38:27.673Z,97890.31
2019-05-11T06:40:57.196Z,97893.17
2019-05-11T06:43:26.882Z,97901.80
2019-05-11T06:45:56.650Z,97899.41
2019-05-11T06:48:26.194Z,97890.05
2019-05-11T06:50:55.902Z,97898.45
2019-05-11T06:53:25.508Z,97891.42
2019-05-11T06:55:55.359Z,97894.08
2019-05-11T06:58:25.146Z,97888.41
2019-05-11T07:00:54.870Z,97890.00
2019-05-11T07:03:24.543Z,97885.81
2019-05-11T07:05:54.295Z,97880.70
2019-05-11T07:08:24.191Z,97889.42
2019-05-11T07:10:53.605Z,97891.95
2019-05-11T07:13:23.019Z,97887.91
2019-05-11T07:15:52.720Z,97897.96
2019-05-11T07:18:22.569Z,97892.78
2019-05-11T07:20:51.981Z,97890.33
2019-05-11T07:23:21.760Z,97889.37
2019-05-11T07:25:51.534Z,97888.25
2019-05-11T07:28:20.929Z,97902.30
2019-05-11T07:30:50.479Z,97892.13
2019-05-11T07:33:20.103Z,97894.22
2019-05-11T07:35:49.758Z,97898.17
2019-05-11T07:38:19.347Z,97903.77
2019-05-11T07:40:49.175Z,97899.04
2019-05-11T07:43:19.096Z,97897.49
2019-05-11T07:45:48.881Z,97896.69
2019-05-11T07:48:18.826Z,97900.74
2019-05-11T07:50:48.631Z,97907.77
2019-05-11T07:53:18.760Z,97905.69
2019-05-11T07:55:48.694Z,97904.87
2019-05-11T07:58:20.191Z,97898.63
2019-05-11T08:00:49.850Z,97902.09
2019-05-11T08:03:19.509Z,97897.97
2019-05-11T08:05:49.235Z,97896.03
2019-05-11T08:08:18.989Z,97895.72
2019-05-11T08:10:48.739Z,97900.00
2019-05-11T08:13:18.373Z,97899.19
2019-05-11T08:15:48.911Z,97902.52
2019-05-11T08:18:18.981Z,97904.75
2019-05-11T08:20:48.505Z,97890.75
2019-05-11T08:23:18.241Z,97890.34
2019-05-11T08:25:48.610Z,97897.50
2019-05-11T08:28:18.604Z,97890.41
2019-05-11T08:30:48.739Z,97891.53
2019-05-11T08:33:18.483Z,97899.73
2019-05-11T08:35:48.222Z,97897.65
2019-05-11T08:38:18.247Z,97900.19
2019-05-11T08:40:48.641Z,97901.65
2019-05-11T08:43:18.463Z,97893.95
2019-05-11T08:45:48.527Z,97903.94
2019-05-11T08:48:18.808Z,97904.60
2019-05-11T08:50:49.043Z,97899.84
2019-05-11T08:53:18.733Z,97900.86
2019-05-11T08:55:48.690Z,97888.31
2019-05-11T08:58:19.338Z,97886.65
2019-05-11T09:00:50.126Z,97893.87
2019-05-11T09:03:19.639Z,97882.30
2019-05-11T09:05:49.295Z,97885.53
2019-05-11T09:08:19.117Z,97889.43
2019-05-11T09:10:49.212Z,97892.47
2019-05-11T09:13:19.070Z,97896.88
2019-05-11T09:15:48.859Z,97889.98
2019-05-11T09:18:18.915Z,97889.55
2019-05-11T09:20:48.756Z,97897.17
2019-05-11T09:23:33.439Z,97899.91
2019-05-11T09:25:49.826Z,97901.16
2019-05-11T09:28:19.738Z,97907.99
2019-05-11T09:30:49.343Z,97904.84
2019-05-11T09:33:20.808Z,97906.79
2019-05-11T09:35:53.419Z,97905.92
2019-05-11T09:38:22.188Z,97901.57
2019-05-11T09:40:51.781Z,97904.05
2019-05-11T09:43:21.384Z,97897.75
2019-05-11T09:45:52.137Z,97898.22
2019-05-11T09:48:21.993Z,97886.24
2019-05-11T09:50:51.502Z,97893.17
2019-05-11T09:53:21.153Z,97890.76
2019-05-11T09:55:50.673Z,97886.27
2019-05-11T09:58:20.213Z,97884.06
2019-05-11T10:00:49.966Z,97882.30
2019-05-11T10:03:19.791Z,97882.16
2019-05-11T10:05:49.590Z,97875.60
2019-05-11T10:08:18.994Z,97880.98
2019-05-11T10:10:48.922Z,97872.88
2019-05-11T10:13:18.642Z,97875.97
2019-05-11T10:16:02.606Z,97875.16
2019-05-11T10:18:19.566Z,97868.13
2019-05-11T10:20:49.387Z,97853.35
2019-05-11T10:23:19.041Z,97850.74
2019-05-11T10:25:48.443Z,97851.11
2019-05-11T10:28:18.104Z,97853.62
2019-05-11T10:30:48.716Z,97849.56
2019-05-11T10:33:18.923Z,97852.25
2019-05-11T10:35:48.762Z,97843.06
2019-05-11T10:38:18.297Z,97842.14
2019-05-11T10:40:48.215Z,97848.22
2019-05-11T10:43:18.481Z,97850.39
2019-05-11T10:45:48.528Z,97842.77
2019-05-11T10:48:18.324Z,97847.83
2019-05-11T10:50:48.480Z,97847.83
2019-05-11T10:53:18.631Z,97854.39
2019-05-11T10:55:48.236Z,97854.59
2019-05-11T10:58:18.539Z,97858.91
2019-05-11T11:00:48.481Z,97857.91
2019-05-11T11:03:18.211Z,97860.42
2019-05-11T11:05:48.732Z,97855.62
2019-05-11T11:08:18.732Z,97850.03
2019-05-11T11:10:48.612Z,97847.05
2019-05-11T11:13:18.790Z,97853.73
2019-05-11T11:15:48.834Z,97853.17
2019-05-11T11:18:19.025Z,97849.87
2019-05-11T11:20:49.077Z,97845.84
2019-05-11T11:23:18.754Z,97849.53
2019-05-11T11:25:48.336Z,97846.62
2019-05-11T11:28:17.793Z,97847.36
2019-05-11T11:30:48.095Z,97842.63
2019-05-11T11:33:18.486Z,97835.95
2019-05-11T11:35:48.266Z,97829.44
2019-05-11T11:38:18.129Z,97829.90
2019-05-11T11:40:48.281Z,97829.98
2019-05-11T11:43:18.177Z,97833.78
2019-05-11T11:45:48.484Z,97831.67
2019-05-11T11:48:18.894Z,97820.16
2019-05-11T11:50:48.831Z,97817.53
2019-05-11T11:53:18.903Z,97825.56
2019-05-11T11:55:48.624Z,97819.76
2019-05-11T11:58:23.569Z,97824.17
2019-05-11T12:00:49.612Z,97821.30
2019-05-11T12:03:19.354Z,97809.73
2019-05-11T12:05:48.926Z,97800.02
2019-05-11T12:08:18.985Z,97803.42
2019-05-11T12:10:48.884Z,97787.77
2019-05-11T12:13:18.823Z,97794.97
2019-05-11T12:15:48.687Z,97802.67
2019-05-11T12:18:18.563Z,97793.36
2019-05-11T12:20:48.488Z,97792.65
2019-05-11T12:23:18.241Z,97793.64
2019-05-11T12:25:48.725Z,97789.22
2019-05-11T12:28:18.506Z,97791.62
2019-05-11T12:30:48.327Z,97786.72
2019-05-11T12:33:18.744Z,97780.02
2019-05-11T12:35:48.737Z,97788.41
2019-05-11T12:38:18.440Z,97771.28
2019-05-11T12:40:48.364Z,97778.48
2019-05-11T12:43:19.000Z,97781.34
2019-05-11T12:45:49.304Z,97772.84
2019-05-11T12:48:18.802Z,97774.53
2019-05-11T12:50:48.569Z,97771.59
2019-05-11T12:53:18.594Z,97763.61
2019-05-11T12:55:48.620Z,97757.95
2019-05-11T12:58:18.461Z,97760.00
2019-05-11T13:00:48.172Z,97755.37
2019-05-11T13:03:18.661Z,97756.02
2019-05-11T13:05:48.700Z,97754.98
2019-05-11T13:08:18.575Z,97750.47
2019-05-11T13:10:48.076Z,97753.22
2019-05-11T13:13:18.354Z,97755.22
2019-05-11T13:15:48.273Z,97751.85
2019-05-11T13:18:18.704Z,97748.83
2019-05-11T13:20:48.397Z,97747.31
2019-05-11T13:23:18.674Z,97754.66
2019-05-11T13:25:48.320Z,97738.20
2019-05-11T13:28:18.111Z,97741.87
2019-05-11T13:30:48.849Z,97749.22
2019-05-11T13:33:19.159Z,97746.56
2019-05-11T13:35:49.105Z,97748.77
2019-05-11T13:38:18.737Z,97754.55
2019-05-11T13:40:48.911Z,97743.12
2019-05-11T13:43:19.020Z,97742.05
2019-05-11T13:45:48.874Z,97742.50
2019-05-11T13:48:18.567Z,97744.79
2019-05-11T13:50:48.470Z,97741.75
2019-05-11T13:53:18.582Z,97739.40
2019-05-11T13:55:48.341Z,97748.98
2019-05-11T13:58:19.812Z,97744.84
2019-05-11T14:00:49.630Z,97749.21
2019-05-11T14:03:19.283Z,97739.36
2019-05-11T14:05:48.943Z,97747.72
2019-05-11T14:08:18.847Z,97741.94
2019-05-11T14:10:48.941Z,97743.26
2019-05-11T14:13:18.850Z,97736.64
2019-05-11T14:15:48.567Z,97738.48
2019-05-11T14:18:18.472Z,97732.66
2019-05-11T14:20:48.514Z,97731.92
2019-05-11T14:23:18.451Z,97738.20
2019-05-11T14:25:48.634Z,97726.32
2019-05-11T14:28:18.908Z,97726.32
2019-05-11T14:30:48.773Z,97723.86
2019-05-11T14:33:18.456Z,97722.45
2019-05-11T14:35:48.920Z,97717.67
2019-05-11T14:38:19.072Z,97726.50
2019-05-11T14:40:48.463Z,97728.60
2019-05-11T14:43:18.866Z,97729.84
2019-05-11T14:45:48.757Z,97718.24
2019-05-11T14:48:26.346Z,97728.00
2019-05-11T14:50:49.975Z,97732.52
2019-05-11T14:53:19.657Z,97735.51
2019-05-11T14:55:49.342Z,97737.39
2019-05-11T14:58:19.680Z,97736.48
2019-05-11T15:00:53.256Z,97736.87
2019-05-11T15:03:22.966Z,97741.09
2019-05-11T15:05:52.382Z,97734.80
2019-05-11T15:08:22.065Z,97737.14
2019-05-11T15:10:51.838Z,97734.19
2019-05-11T15:13:21.520Z,97736.69
2019-05-11T15:15:51.186Z,97736.09
2019-05-11T15:18:34.193Z,97733.98
2019-05-11T15:20:52.372Z,97735.91
2019-05-11T15:23:21.793Z,97733.92
2019-05-11T15:25:51.618Z,97729.56
2019-05-11T15:28:21.696Z,97727.44
2019-05-11T15:30:51.102Z,97731.08
2019-05-11T15:33:20.799Z,97729.74
2019-05-11T15:35:50.307Z,97733.96
2019-05-11T15:38:20.021Z,97728.22
2019-05-11T15:40:49.596Z,97737.28
2019-05-11T15:43:19.009Z,97735.60
2019-05-11T15:45:48.836Z,97745.97
2019-05-11T15:48:18.892Z,97743.17
2019-05-11T15:50:48.709Z,97738.30
2019-05-11T15:53:18.143Z,97740.08
2019-05-11T15:55:47.677Z,97736.98
2019-05-11T15:58:21.446Z,97743.42
2019-05-11T16:00:48.815Z,97746.73
2019-05-11T16:03:18.798Z,97744.82
2019-05-11T16:05:48.549Z,97745.45
2019-05-11T16:08:18.957Z,97744.39
2019-05-11T16:10:49.093Z,97746.61
2019-05-11T16:13:18.796Z,97752.87
2019-05-11T16:15:48.228Z,97751.39
2019-05-11T16:18:18.901Z,97750.69
2019-05-11T16:20:50.288Z,97761.48
2019-05-11T16:23:20.372Z,97761.34
2019-05-11T16:25:50.099Z,97759.89
2019-05-11T16:28:19.927Z,97753.51
2019-05-11T16:30:49.742Z,97758.02
2019-05-11T16:33:19.451Z,97758.64
2019-05-11T16:35:49.166Z,97759.53
2019-05-11T16:38:19.147Z,97759.25
2019-05-11T16:40:48.883Z,97758.55
2019-05-11T16:43:19.244Z,97762.40
2019-05-11T16:45:50.998Z,97768.89
2019-05-11T16:48:19.995Z,97770.83
2019-05-11T16:50:49.513Z,97765.02
2019-05-11T16:53:19.305Z,97770.59
2019-05-11T16:55:48.799Z,97773.11
2019-05-11T16:58:19.925Z,97774.96
2019-05-11T17:00:49.992Z,97774.94
2019-05-11T17:03:19.492Z,97773.22
2019-05-11T17:05:48.911Z,97774.95
2019-05-11T17:08:18.885Z,97778.73
2019-05-11T17:10:59.163Z,97779.43
2019-05-11T17:13:28.392Z,97781.73
2019-05-11T17:15:58.459Z,97801.52
2019-05-11T17:18:28.686Z,97791.21
2019-05-11T17:20:58.643Z,97795.90
2019-05-11T17:23:30.752Z,97804.59
2019-05-11T17:25:59.358Z,97796.00
2019-05-11T17:28:29.176Z,97803.97
2019-05-11T17:31:02.650Z,97803.41
2019-05-11T17:33:30.376Z,97807.22
2019-05-11T17:36:00.021Z,97811.41
2019-05-11T17:38:29.540Z,97812.87
2019-05-11T17:40:59.131Z,97812.13
2019-05-11T17:43:28.700Z,97817.69
2019-05-11T17:45:58.677Z,97822.84
2019-05-11T17:48:28.441Z,97818.44
2019-05-11T17:50:58.264Z,97826.53
2019-05-11T17:53:28.580Z,97822.51
2019-05-11T17:55:58.247Z,97836.17
2019-05-11T17:58:27.813Z,97840.16
2019-05-11T18:00:58.794Z,97842.36
2019-05-11T18:03:29.025Z,97851.87
2019-05-11T18:05:59.087Z,97851.19
2019-05-11T18:08:30.913Z,97859.77
2019-05-11T18:10:59.852Z,97860.10
2019-05-11T18:13:29.365Z,97857.56
2019-05-11T18:15:59.104Z,97855.12
2019-05-11T18:18:29.248Z,97863.42
2019-05-11T18:20:59.113Z,97875.19
2019-05-11T18:23:29.194Z,97873.86
2019-05-11T18:25:59.071Z,97877.09
2019-05-11T18:28:29.323Z,97882.33
2019-05-11T18:30:59.055Z,97887.44
2019-05-11T18:33:28.663Z,97890.66
2019-05-11T18:35:58.712Z,97889.99
2019-05-11T18:38:28.814Z,97891.98
2019-05-11T18:40:58.379Z,97885.19
2019-05-11T18:43:28.332Z,97890.86
2019-05-11T18:45:58.431Z,97893.15
2019-05-11T18:48:29.068Z,97901.11
2019-05-11T18:50:59.159Z,97898.26
2019-05-11T18:53:29.183Z,97907.72
2019-05-11T18:55:59.244Z,97905.73
2019-05-11T18:58:28.998Z,97910.11
2019-05-11T19:00:58.565Z,97917.01
2019-05-11T19:03:28.332Z,97918.89
2019-05-11T19:05:58.059Z,97919.24
2019-05-11T19:08:28.211Z,97919.07
2019-05-11T19:10:58.191Z,97918.45
2019-05-11T19:13:28.394Z,97919.20
2019-05-11T19:15:58.454Z,97918.27
2019-05-11T19:18:28.404Z,97923.30
2019-05-11T19:20:58.676Z,97934.24
2019-05-11T19:23:28.887Z,97932.73
2019-05-11T19:25:58.637Z,97932.37
2019-05-11T19:28:28.414Z,97934.00
2019-05-11T19:30:59.237Z,97936.83
2019-05-11T19:33:29.005Z,97937.68
2019-05-11T19:35:58.792Z,97937.84
2019-05-11T19:38:28.280Z,97936.71
2019-05-11T19:40:58.793Z,97932.41
2019-05-11T19:43:28.485Z,97936.78
2019-05-11T19:45:58.364Z,97937.63
2019-05-11T19:48:28.245Z,97940.69
2019-05-11T19:51:06.693Z,97937.92
2019-05-11T19:53:29.759Z,97941.23
2019-05-11T19:55:59.662Z,97933.27
2019-05-11T19:58:29.969Z,97933.94
2019-05-11T20:00:59.847Z,97927.47
2019-05-11T20:03:30.227Z,97928.33
2019-05-11T20:06:00.058Z,97931.47
2019-05-11T20:08:29.588Z,97928.33
2019-05-11T20:10:59.018Z,97933.72
2019-05-11T20:13:28.760Z,97931.16
2019-05-11T20:15:58.485Z,97934.02
2019-05-11T20:18:28.922Z,97932.50
2019-05-11T20:20:58.435Z,97932.70
2019-05-11T20:23:28.189Z,97927.28
2019-05-11T20:25:58.308Z,97935.37
2019-05-11T20:28:28.477Z,97927.97
2019-05-11T20:30:58.966Z,97917.25
2019-05-11T20:33:28.672Z,97914.88
2019-05-11T20:35:58.282Z,97922.08
2019-05-11T20:38:28.163Z,97915.44
2019-05-11T20:40:57.907Z,97922.38
2019-05-11T20:43:28.021Z,97921.89
2019-05-11T20:45:57.638Z,97919.64
2019-05-11T20:48:27.850Z,97915.46
2019-05-11T20:50:57.886Z,97913.37
2019-05-11T20:53:28.673Z,97924.96
2019-05-11T20:55:59.012Z,97929.15
2019-05-11T20:58:30.464Z,97927.42
2019-05-11T21:01:00.334Z,97919.25
2019-05-11T21:03:30.143Z,97924.41
2019-05-11T21:05:59.562Z,97927.92
2019-05-11T21:08:28.982Z,97931.61
2019-05-11T21:10:58.733Z,97937.68
2019-05-11T21:13:28.428Z,97946.52
2019-05-11T21:15:59.245Z,97948.47
2019-05-11T21:18:29.054Z,97951.53
2019-05-11T21:20:58.598Z,97955.14
2019-05-11T21:23:28.992Z,97950.59
2019-05-11T21:25:59.067Z,97950.94
2019-05-11T21:28:30.702Z,97953.64
2019-05-11T21:31:00.257Z,97961.85
2019-05-11T21:33:29.869Z,97957.46
2019-05-11T21:36:00.735Z,97958.92
2019-05-11T21:38:31.821Z,97963.61
2019-05-11T21:41:01.586Z,97961.26
2019-05-11T21:43:31.264Z,97964.61
2019-05-11T21:46:01.314Z,97971.13
2019-05-11T21:48:30.968Z,97964.45
2019-05-11T21:51:00.699Z,97967.44
2019-05-11T21:53:30.515Z,97965.66
2019-05-11T21:56:00.238Z,97959.37
2019-05-11T21:58:30.110Z,97975.80
2019-05-11T22:00:59.941Z,97967.31
2019-05-11T22:03:29.668Z,97969.28
2019-05-11T22:05:59.204Z,97972.66
2019-05-11T22:08:28.812Z,97977.45
2019-05-11T22:10:59.973Z,97991.04
2019-05-11T22:13:29.780Z,97987.68
2019-05-11T22:15:59.553Z,97994.21
2019-05-11T22:18:31.395Z,98003.33
2019-05-11T22:21:00.793Z,98013.00
2019-05-11T22:23:30.505Z,98013.66
2019-05-11T22:26:00.288Z,98020.83
2019-05-11T22:28:29.971Z,98026.73
2019-05-11T22:30:59.735Z,98023.39
2019-05-11T22:33:29.437Z,98025.10
2019-05-11T22:35:58.994Z,98029.95
2019-05-11T22:38:30.269Z,98029.68
2019-05-11T22:41:00.106Z,98022.53
2019-05-11T22:43:29.938Z,98024.77
2019-05-11T22:45:59.517Z,98022.52
2019-05-11T22:48:29.228Z,98013.44
2019-05-11T22:50:58.910Z,98014.67
2019-05-11T22:53:43.322Z,98013.88
2019-05-11T22:55:59.849Z,98008.17
2019-05-11T22:58:29.293Z,98004.19
2019-05-11T23:00:59.791Z,98006.69
2019-05-11T23:03:29.695Z,98002.06
2019-05-11T23:05:59.545Z,98000.98
2019-05-11T23:08:29.352Z,97999.20
2019-05-11T23:10:59.007Z,97996.05
2019-05-11T23:13:28.527Z,97997.07
2019-05-11T23:15:58.459Z,97989.15
2019-05-11T23:18:28.763Z,97992.03
2019-05-11T23:20:58.638Z,97990.39
2019-05-11T23:23:28.408Z,97985.92
2019-05-11T23:25:58.101Z,97985.64
2019-05-11T23:28:28.753Z,97978.45
2019-05-11T23:30:58.579Z,97982.62
2019-05-11T23:33:28.291Z,97974.31
2019-05-11T23:35:58.729Z,97965.48
2019-05-11T23:38:28.596Z,97962.73
2019-05-11T23:40:58.873Z,97964.91
2019-05-11T23:43:30.108Z,97963.65
2019-05-11T23:45:59.980Z,97971.72
2019-05-11T23:48:29.484Z,97967.20
2019-05-11T23:50:59.230Z,97969.96
2019-05-11T23:53:29.046Z,97976.68
2019-05-11T23:55:58.553Z,97974.34
2019-05-11T23:58:28.391Z,97971.02
